sensor_id;sensor_type;location;lat;lon;timestamp;pressure;altitude;pressure_sealevel;temperature;humidity
26635;BME280;14490;54.208;37.686;2022-07-18T00:02:16;99144.00;;;14.04;100.00
26635;BME280;14490;54.208;37.686;2022-07-18T00:04:45;99131.19;;;14.06;100.00
26635;BME280;14490;54.208;37.686;2022-07-18T00:07:13;99062.34;;;13.65;100.00
26635;BME280;14490;54.208;37.686;2022-07-18T00:09:41;99127.78;;;14.04;100.00
26635;BME280;14490;54.208;37.686;2022-07-18T00:12:10;99100.91;;;13.85;100.00
26635;BME280;14490;54.208;37.686;2022-07-18T00:14:40;98977.09;;;13.18;100.00
26635;BME280;14490;54.208;37.686;2022-07-18T00:17:08;98972.31;;;13.12;100.00
26635;BME280;14490;54.208;37.686;2022-07-18T00:19:37;99102.38;;;13.80;100.00
26635;BME280;14490;54.208;37.686;2022-07-18T00:22:05;99134.66;;;13.99;100.00
26635;BME280;14490;54.208;37.686;2022-07-18T00:24:33;99133.81;;;13.98;100.00
26635;BME280;14490;54.208;37.686;2022-07-18T00:27:04;99145.66;;;13.97;100.00
26635;BME280;14490;54.208;37.686;2022-07-18T00:29:33;99108.25;;;13.75;100.00
26635;BME280;14490;54.208;37.686;2022-07-18T00:32:05;99141.22;;;13.96;100.00
26635;BME280;14490;54.208;37.686;2022-07-18T00:34:34;99149.53;;;13.95;100.00
26635;BME280;14490;54.208;37.686;2022-07-18T00:37:03;99122.84;;;13.82;100.00
26635;BME280;14490;54.208;37.686;2022-07-18T00:39:31;99097.50;;;13.65;100.00
26635;BME280;14490;54.208;37.686;2022-07-18T00:41:59;99147.88;;;13.84;100.00
26635;BME280;14490;54.208;37.686;2022-07-18T00:44:27;99122.69;;;13.66;100.00
26635;BME280;14490;54.208;37.686;2022-07-18T00:46:58;99130.81;;;13.66;100.00
26635;BME280;14490;54.208;37.686;2022-07-18T00:49:28;99145.19;;;13.66;100.00
26635;BME280;14490;54.208;37.686;2022-07-18T00:51:56;98979.44;;;12.58;100.00
26635;BME280;14490;54.208;37.686;2022-07-18T00:54:24;99138.84;;;13.58;100.00
26635;BME280;14490;54.208;37.686;2022-07-18T00:56:51;99035.41;;;12.93;100.00
26635;BME280;14490;54.208;37.686;2022-07-18T00:59:19;99145.84;;;13.51;100.00
26635;BME280;14490;54.208;37.686;2022-07-18T01:01:47;99037.00;;;12.86;100.00
26635;BME280;14490;54.208;37.686;2022-07-18T01:04:16;99112.16;;;13.28;100.00
26635;BME280;14490;54.208;37.686;2022-07-18T01:06:47;99115.53;;;13.30;100.00
26635;BME280;14490;54.208;37.686;2022-07-18T01:09:16;99117.00;;;13.24;100.00
26635;BME280;14490;54.208;37.686;2022-07-18T01:11:46;99151.88;;;13.45;100.00
26635;BME280;14490;54.208;37.686;2022-07-18T01:14:14;99130.28;;;13.35;100.00
26635;BME280;14490;54.208;37.686;2022-07-18T01:16:42;99150.16;;;13.44;100.00
26635;BME280;14490;54.208;37.686;2022-07-18T01:19:11;99144.75;;;13.44;100.00
26635;BME280;14490;54.208;37.686;2022-07-18T01:21:40;99106.81;;;13.18;100.00
26635;BME280;14490;54.208;37.686;2022-07-18T01:24:08;99148.78;;;13.40;100.00
26635;BME280;14490;54.208;37.686;2022-07-18T01:26:35;99002.00;;;12.40;100.00
26635;BME280;14490;54.208;37.686;2022-07-18T01:29:03;99070.16;;;12.79;100.00
26635;BME280;14490;54.208;37.686;2022-07-18T01:31:31;99141.53;;;13.03;100.00
26635;BME280;14490;54.208;37.686;2022-07-18T01:34:00;99153.28;;;13.22;100.00
26635;BME280;14490;54.208;37.686;2022-07-18T01:36:28;99153.59;;;13.19;100.00
26635;BME280;14490;54.208;37.686;2022-07-18T01:38:57;99147.06;;;13.11;100.00
26635;BME280;14490;54.208;37.686;2022-07-18T01:41:27;99105.81;;;12.82;100.00
26635;BME280;14490;54.208;37.686;2022-07-18T01:43:55;99072.06;;;12.59;100.00
26635;BME280;14490;54.208;37.686;2022-07-18T01:46:22;99019.88;;;12.41;100.00
26635;BME280;14490;54.208;37.686;2022-07-18T01:48:50;99046.69;;;12.52;100.00
26635;BME280;14490;54.208;37.686;2022-07-18T01:51:17;99128.16;;;13.11;100.00
26635;BME280;14490;54.208;37.686;2022-07-18T01:53:55;99101.50;;;12.89;100.00
26635;BME280;14490;54.208;37.686;2022-07-18T01:56:26;99147.81;;;13.04;100.00
26635;BME280;14490;54.208;37.686;2022-07-18T01:58:54;99111.63;;;12.87;100.00
26635;BME280;14490;54.208;37.686;2022-07-18T02:01:22;99046.69;;;12.52;100.00
26635;BME280;14490;54.208;37.686;2022-07-18T02:03:49;99129.72;;;13.04;100.00
26635;BME280;14490;54.208;37.686;2022-07-18T02:06:17;99135.56;;;13.09;100.00
26635;BME280;14490;54.208;37.686;2022-07-18T02:08:45;99005.69;;;12.39;100.00
26635;BME280;14490;54.208;37.686;2022-07-18T02:11:14;99123.69;;;13.20;100.00
26635;BME280;14490;54.208;37.686;2022-07-18T02:13:49;99089.50;;;13.01;100.00
26635;BME280;14490;54.208;37.686;2022-07-18T02:16:17;99125.03;;;13.16;100.00
26635;BME280;14490;54.208;37.686;2022-07-18T02:18:44;99129.53;;;13.25;100.00
26635;BME280;14490;54.208;37.686;2022-07-18T02:21:12;99127.34;;;13.29;100.00
26635;BME280;14490;54.208;37.686;2022-07-18T02:23:40;99128.50;;;13.26;100.00
26635;BME280;14490;54.208;37.686;2022-07-18T02:26:10;99036.00;;;12.60;100.00
26635;BME280;14490;54.208;37.686;2022-07-18T02:28:40;99134.81;;;13.07;100.00
26635;BME280;14490;54.208;37.686;2022-07-18T02:31:07;99081.66;;;12.81;100.00
26635;BME280;14490;54.208;37.686;2022-07-18T02:33:35;99134.13;;;13.05;100.00
26635;BME280;14490;54.208;37.686;2022-07-18T02:36:03;99100.66;;;12.89;100.00
26635;BME280;14490;54.208;37.686;2022-07-18T02:38:31;99130.94;;;13.20;100.00
26635;BME280;14490;54.208;37.686;2022-07-18T02:40:59;99036.38;;;12.65;100.00
26635;BME280;14490;54.208;37.686;2022-07-18T02:43:27;99139.59;;;13.50;100.00
26635;BME280;14490;54.208;37.686;2022-07-18T02:45:56;99005.44;;;12.87;100.00
26635;BME280;14490;54.208;37.686;2022-07-18T02:48:23;99141.16;;;13.88;100.00
26635;BME280;14490;54.208;37.686;2022-07-18T02:50:51;99145.47;;;13.99;100.00
26635;BME280;14490;54.208;37.686;2022-07-18T02:53:19;99047.28;;;13.45;100.00
26635;BME280;14490;54.208;37.686;2022-07-18T02:55:49;99142.88;;;14.07;100.00
26635;BME280;14490;54.208;37.686;2022-07-18T02:58:17;99149.41;;;14.22;100.00
26635;BME280;14490;54.208;37.686;2022-07-18T03:00:45;99142.94;;;14.33;100.00
26635;BME280;14490;54.208;37.686;2022-07-18T03:03:14;99161.47;;;14.45;100.00
26635;BME280;14490;54.208;37.686;2022-07-18T03:05:41;99078.13;;;14.13;100.00
26635;BME280;14490;54.208;37.686;2022-07-18T03:08:09;99137.63;;;14.49;100.00
26635;BME280;14490;54.208;37.686;2022-07-18T03:10:37;99141.47;;;14.64;100.00
26635;BME280;14490;54.208;37.686;2022-07-18T03:13:05;99130.34;;;14.75;100.00
26635;BME280;14490;54.208;37.686;2022-07-18T03:15:33;99130.09;;;14.86;100.00
26635;BME280;14490;54.208;37.686;2022-07-18T03:18:00;99101.63;;;14.82;100.00
26635;BME280;14490;54.208;37.686;2022-07-18T03:20:30;99084.38;;;14.91;100.00
26635;BME280;14490;54.208;37.686;2022-07-18T03:22:57;99118.53;;;15.18;100.00
26635;BME280;14490;54.208;37.686;2022-07-18T03:25:25;99113.66;;;15.21;100.00
26635;BME280;14490;54.208;37.686;2022-07-18T03:27:53;98890.47;;;13.89;100.00
26635;BME280;14490;54.208;37.686;2022-07-18T03:30:20;99064.78;;;15.05;100.00
26635;BME280;14490;54.208;37.686;2022-07-18T03:32:48;99107.47;;;15.03;100.00
26635;BME280;14490;54.208;37.686;2022-07-18T03:35:16;99107.13;;;14.98;100.00
26635;BME280;14490;54.208;37.686;2022-07-18T03:37:45;99111.03;;;15.04;100.00
26635;BME280;14490;54.208;37.686;2022-07-18T03:40:13;99102.78;;;15.13;100.00
26635;BME280;14490;54.208;37.686;2022-07-18T03:42:40;98988.09;;;14.63;100.00
26635;BME280;14490;54.208;37.686;2022-07-18T03:45:08;99010.56;;;14.89;100.00
26635;BME280;14490;54.208;37.686;2022-07-18T03:47:36;99035.03;;;15.13;100.00
26635;BME280;14490;54.208;37.686;2022-07-18T03:50:05;99093.69;;;15.39;100.00
26635;BME280;14490;54.208;37.686;2022-07-18T03:52:33;99084.25;;;15.51;100.00
26635;BME280;14490;54.208;37.686;2022-07-18T03:55:03;99010.78;;;15.20;100.00
26635;BME280;14490;54.208;37.686;2022-07-18T03:57:32;99131.81;;;16.03;100.00
26635;BME280;14490;54.208;37.686;2022-07-18T04:00:00;99109.44;;;16.01;100.00
26635;BME280;14490;54.208;37.686;2022-07-18T04:02:28;99083.50;;;15.99;100.00
26635;BME280;14490;54.208;37.686;2022-07-18T04:04:55;99131.66;;;16.37;100.00
26635;BME280;14490;54.208;37.686;2022-07-18T04:07:23;99108.06;;;16.37;100.00
26635;BME280;14490;54.208;37.686;2022-07-18T04:09:51;99099.38;;;16.42;100.00
26635;BME280;14490;54.208;37.686;2022-07-18T04:12:20;99127.06;;;16.62;100.00
26635;BME280;14490;54.208;37.686;2022-07-18T04:14:47;99127.72;;;16.72;100.00
26635;BME280;14490;54.208;37.686;2022-07-18T04:17:15;99129.25;;;16.82;100.00
26635;BME280;14490;54.208;37.686;2022-07-18T04:19:42;98923.59;;;15.65;100.00
26635;BME280;14490;54.208;37.686;2022-07-18T04:22:10;99113.66;;;16.60;100.00
26635;BME280;14490;54.208;37.686;2022-07-18T04:24:38;99123.47;;;16.69;100.00
26635;BME280;14490;54.208;37.686;2022-07-18T04:27:05;99125.53;;;16.67;100.00
26635;BME280;14490;54.208;37.686;2022-07-18T04:29:35;99124.66;;;16.51;99.42
26635;BME280;14490;54.208;37.686;2022-07-18T04:32:03;99076.84;;;16.09;98.82
26635;BME280;14490;54.208;37.686;2022-07-18T04:34:32;99092.97;;;16.19;98.92
26635;BME280;14490;54.208;37.686;2022-07-18T04:37:00;99146.06;;;16.70;99.36
26635;BME280;14490;54.208;37.686;2022-07-18T04:39:28;99090.38;;;16.66;98.45
26635;BME280;14490;54.208;37.686;2022-07-18T04:41:56;99057.41;;;16.69;97.98
26635;BME280;14490;54.208;37.686;2022-07-18T04:44:23;99111.72;;;16.93;96.89
26635;BME280;14490;54.208;37.686;2022-07-18T04:46:52;98990.94;;;16.32;96.84
26635;BME280;14490;54.208;37.686;2022-07-18T04:49:20;99063.84;;;16.84;96.03
26635;BME280;14490;54.208;37.686;2022-07-18T04:51:49;99118.03;;;17.24;95.73
26635;BME280;14490;54.208;37.686;2022-07-18T04:54:17;99107.75;;;17.42;94.96
26635;BME280;14490;54.208;37.686;2022-07-18T04:56:44;99006.78;;;16.84;94.11
26635;BME280;14490;54.208;37.686;2022-07-18T04:59:12;99034.06;;;16.90;92.89
26635;BME280;14490;54.208;37.686;2022-07-18T05:01:40;99025.13;;;16.82;93.44
26635;BME280;14490;54.208;37.686;2022-07-18T05:04:09;99006.97;;;16.74;93.30
26635;BME280;14490;54.208;37.686;2022-07-18T05:06:37;99061.19;;;17.07;93.06
26635;BME280;14490;54.208;37.686;2022-07-18T05:09:04;99093.53;;;17.32;93.01
26635;BME280;14490;54.208;37.686;2022-07-18T05:11:32;99090.94;;;17.39;92.47
26635;BME280;14490;54.208;37.686;2022-07-18T05:14:00;99070.84;;;17.09;91.54
26635;BME280;14490;54.208;37.686;2022-07-18T05:16:28;99084.44;;;17.17;91.65
26635;BME280;14490;54.208;37.686;2022-07-18T05:18:56;98969.84;;;16.59;91.45
26635;BME280;14490;54.208;37.686;2022-07-18T05:21:25;99014.59;;;16.79;91.10
26635;BME280;14490;54.208;37.686;2022-07-18T05:23:53;99073.56;;;17.17;91.33
26635;BME280;14490;54.208;37.686;2022-07-18T05:26:21;99046.84;;;16.82;90.63
26635;BME280;14490;54.208;37.686;2022-07-18T05:28:49;99069.91;;;16.94;90.55
26635;BME280;14490;54.208;37.686;2022-07-18T05:31:19;99070.59;;;16.96;90.90
26635;BME280;14490;54.208;37.686;2022-07-18T05:33:47;99063.09;;;16.98;91.10
26635;BME280;14490;54.208;37.686;2022-07-18T05:36:15;99055.97;;;16.97;90.66
26635;BME280;14490;54.208;37.686;2022-07-18T05:38:47;99040.66;;;17.04;90.51
26635;BME280;14490;54.208;37.686;2022-07-18T05:41:15;99016.69;;;17.00;90.80
26635;BME280;14490;54.208;37.686;2022-07-18T05:43:42;99041.53;;;17.27;90.84
26635;BME280;14490;54.208;37.686;2022-07-18T05:46:10;98985.91;;;17.07;90.71
26635;BME280;14490;54.208;37.686;2022-07-18T05:48:39;98989.44;;;17.16;90.21
26635;BME280;14490;54.208;37.686;2022-07-18T05:51:07;98951.66;;;16.98;89.59
26635;BME280;14490;54.208;37.686;2022-07-18T05:53:38;99019.13;;;17.25;89.33
26635;BME280;14490;54.208;37.686;2022-07-18T05:56:08;98968.88;;;17.13;89.76
26635;BME280;14490;54.208;37.686;2022-07-18T05:58:39;99007.72;;;17.53;90.16
26635;BME280;14490;54.208;37.686;2022-07-18T06:01:07;99055.47;;;17.86;90.18
26635;BME280;14490;54.208;37.686;2022-07-18T06:03:42;99034.22;;;17.81;89.97
26635;BME280;14490;54.208;37.686;2022-07-18T06:06:10;98920.06;;;17.20;89.80
26635;BME280;14490;54.208;37.686;2022-07-18T06:08:38;99042.22;;;17.83;89.14
26635;BME280;14490;54.208;37.686;2022-07-18T06:11:08;99027.69;;;17.68;88.43
26635;BME280;14490;54.208;37.686;2022-07-18T06:13:36;98900.97;;;17.05;88.29
26635;BME280;14490;54.208;37.686;2022-07-18T06:16:06;99050.75;;;17.80;87.64
26635;BME280;14490;54.208;37.686;2022-07-18T06:18:34;99037.97;;;17.58;87.59
26635;BME280;14490;54.208;37.686;2022-07-18T06:21:03;99050.13;;;17.70;87.76
26635;BME280;14490;54.208;37.686;2022-07-18T06:23:31;99045.81;;;17.98;87.55
26635;BME280;14490;54.208;37.686;2022-07-18T06:26:03;99043.00;;;18.29;87.30
26635;BME280;14490;54.208;37.686;2022-07-18T06:28:33;99025.56;;;18.15;86.15
26635;BME280;14490;54.208;37.686;2022-07-18T06:31:05;98882.34;;;17.39;85.53
26635;BME280;14490;54.208;37.686;2022-07-18T06:33:34;99033.31;;;18.26;85.14
26635;BME280;14490;54.208;37.686;2022-07-18T06:36:03;99031.75;;;18.46;85.14
26635;BME280;14490;54.208;37.686;2022-07-18T06:38:32;98978.00;;;18.40;85.22
26635;BME280;14490;54.208;37.686;2022-07-18T06:41:05;98982.19;;;18.51;85.11
26635;BME280;14490;54.208;37.686;2022-07-18T06:43:36;99005.56;;;18.60;84.11
26635;BME280;14490;54.208;37.686;2022-07-18T06:46:05;98980.06;;;18.38;83.61
26635;BME280;14490;54.208;37.686;2022-07-18T06:48:33;98955.13;;;18.12;83.79
26635;BME280;14490;54.208;37.686;2022-07-18T06:51:02;99018.31;;;18.45;83.86
26635;BME280;14490;54.208;37.686;2022-07-18T06:53:34;98975.44;;;18.24;84.30
26635;BME280;14490;54.208;37.686;2022-07-18T06:56:02;98929.50;;;18.21;84.17
26635;BME280;14490;54.208;37.686;2022-07-18T06:58:31;99006.84;;;18.79;84.01
26635;BME280;14490;54.208;37.686;2022-07-18T07:01:00;98952.84;;;18.53;83.43
26635;BME280;14490;54.208;37.686;2022-07-18T07:03:28;99028.38;;;18.88;82.09
26635;BME280;14490;54.208;37.686;2022-07-18T07:05:56;98957.28;;;18.54;81.65
26635;BME280;14490;54.208;37.686;2022-07-18T07:08:23;98947.84;;;18.42;80.52
26635;BME280;14490;54.208;37.686;2022-07-18T07:10:51;99021.63;;;18.99;80.83
26635;BME280;14490;54.208;37.686;2022-07-18T07:13:18;99021.13;;;19.10;80.75
26635;BME280;14490;54.208;37.686;2022-07-18T07:15:46;98949.44;;;19.16;80.00
26635;BME280;14490;54.208;37.686;2022-07-18T07:18:15;98957.16;;;19.48;77.94
26635;BME280;14490;54.208;37.686;2022-07-18T07:20:43;98943.59;;;19.83;77.23
26635;BME280;14490;54.208;37.686;2022-07-18T07:23:11;99009.44;;;20.43;75.89
26635;BME280;14490;54.208;37.686;2022-07-18T07:25:39;98833.81;;;19.38;75.26
26635;BME280;14490;54.208;37.686;2022-07-18T07:28:07;98938.59;;;20.14;75.06
26635;BME280;14490;54.208;37.686;2022-07-18T07:30:35;99006.00;;;20.62;74.77
26635;BME280;14490;54.208;37.686;2022-07-18T07:33:03;98996.22;;;20.81;74.57
26635;BME280;14490;54.208;37.686;2022-07-18T07:35:32;99002.63;;;21.01;73.28
26635;BME280;14490;54.208;37.686;2022-07-18T07:37:59;98883.06;;;20.07;71.88
26635;BME280;14490;54.208;37.686;2022-07-18T07:40:28;99003.25;;;20.97;72.35
26635;BME280;14490;54.208;37.686;2022-07-18T07:43:06;98988.75;;;21.03;71.54
26635;BME280;14490;54.208;37.686;2022-07-18T07:45:34;98903.25;;;20.88;70.72
26635;BME280;14490;54.208;37.686;2022-07-18T07:48:03;98995.78;;;21.25;70.48
26635;BME280;14490;54.208;37.686;2022-07-18T07:50:33;98949.56;;;20.96;70.75
26635;BME280;14490;54.208;37.686;2022-07-18T07:53:01;98950.59;;;20.95;71.02
26635;BME280;14490;54.208;37.686;2022-07-18T07:55:34;98987.13;;;21.08;70.99
26635;BME280;14490;54.208;37.686;2022-07-18T07:58:02;98963.28;;;20.61;70.57
26635;BME280;14490;54.208;37.686;2022-07-18T08:00:32;98962.75;;;20.38;70.89
26635;BME280;14490;54.208;37.686;2022-07-18T08:03:01;98980.44;;;20.49;70.96
26635;BME280;14490;54.208;37.686;2022-07-18T08:05:31;98969.66;;;20.68;71.02
26635;BME280;14490;54.208;37.686;2022-07-18T08:08:01;98974.81;;;20.91;70.23
26635;BME280;14490;54.208;37.686;2022-07-18T08:10:30;98931.88;;;20.92;69.39
26635;BME280;14490;54.208;37.686;2022-07-18T08:12:58;98965.28;;;21.35;68.32
26635;BME280;14490;54.208;37.686;2022-07-18T08:15:26;98947.63;;;21.50;67.70
26635;BME280;14490;54.208;37.686;2022-07-18T08:17:54;98833.69;;;21.16;66.45
26635;BME280;14490;54.208;37.686;2022-07-18T08:20:42;98970.22;;;21.78;66.00
26635;BME280;14490;54.208;37.686;2022-07-18T08:23:11;98961.13;;;21.65;65.59
26635;BME280;14490;54.208;37.686;2022-07-18T08:25:43;98771.00;;;20.41;65.63
26635;BME280;14490;54.208;37.686;2022-07-18T08:28:11;98844.72;;;20.76;65.44
26635;BME280;14490;54.208;37.686;2022-07-18T08:30:39;98898.00;;;20.93;64.76
26635;BME280;14490;54.208;37.686;2022-07-18T08:33:07;98962.72;;;21.20;63.68
26635;BME280;14490;54.208;37.686;2022-07-18T08:35:35;98885.97;;;20.81;62.70
26635;BME280;14490;54.208;37.686;2022-07-18T08:38:05;98946.56;;;21.38;63.11
26635;BME280;14490;54.208;37.686;2022-07-18T08:40:42;98910.16;;;21.57;62.98
26635;BME280;14490;54.208;37.686;2022-07-18T08:43:18;98941.97;;;21.78;62.21
26635;BME280;14490;54.208;37.686;2022-07-18T08:45:47;98899.16;;;21.31;63.21
26635;BME280;14490;54.208;37.686;2022-07-18T08:48:18;98961.53;;;21.42;63.93
26635;BME280;14490;54.208;37.686;2022-07-18T08:50:47;98948.84;;;21.21;64.47
26635;BME280;14490;54.208;37.686;2022-07-18T08:53:18;98947.56;;;21.11;65.41
26635;BME280;14490;54.208;37.686;2022-07-18T08:55:47;98929.53;;;20.82;65.30
26635;BME280;14490;54.208;37.686;2022-07-18T08:58:16;98879.84;;;20.31;65.58
26635;BME280;14490;54.208;37.686;2022-07-18T09:00:44;98928.03;;;20.73;65.67
26635;BME280;14490;54.208;37.686;2022-07-18T09:03:12;98918.78;;;20.81;65.19
26635;BME280;14490;54.208;37.686;2022-07-18T09:05:40;98890.25;;;20.42;64.65
26635;BME280;14490;54.208;37.686;2022-07-18T09:08:10;98951.13;;;20.70;64.63
26635;BME280;14490;54.208;37.686;2022-07-18T09:10:48;98954.47;;;20.59;64.84
26635;BME280;14490;54.208;37.686;2022-07-18T09:13:17;98867.06;;;20.04;64.71
26635;BME280;14490;54.208;37.686;2022-07-18T09:15:59;98822.91;;;19.94;64.31
26635;BME280;14490;54.208;37.686;2022-07-18T09:18:29;98961.31;;;20.90;64.22
26635;BME280;14490;54.208;37.686;2022-07-18T09:20:58;98843.94;;;20.00;63.01
26635;BME280;14490;54.208;37.686;2022-07-18T09:23:32;98772.59;;;19.47;62.82
26635;BME280;14490;54.208;37.686;2022-07-18T09:26:02;98900.28;;;20.35;62.68
26635;BME280;14490;54.208;37.686;2022-07-18T09:28:45;98920.44;;;20.68;62.52
26635;BME280;14490;54.208;37.686;2022-07-18T09:31:18;98919.09;;;20.58;62.70
26635;BME280;14490;54.208;37.686;2022-07-18T09:33:52;98887.50;;;20.42;63.05
26635;BME280;14490;54.208;37.686;2022-07-18T09:36:20;98879.44;;;20.34;63.29
26635;BME280;14490;54.208;37.686;2022-07-18T09:38:47;98933.56;;;20.52;64.15
26635;BME280;14490;54.208;37.686;2022-07-18T09:41:21;98945.50;;;20.38;65.12
26635;BME280;14490;54.208;37.686;2022-07-18T09:43:50;98852.50;;;19.62;66.05
26635;BME280;14490;54.208;37.686;2022-07-18T09:46:18;98930.56;;;20.12;66.99
26635;BME280;14490;54.208;37.686;2022-07-18T09:48:45;98916.50;;;20.09;67.59
26635;BME280;14490;54.208;37.686;2022-07-18T09:51:14;98868.59;;;19.79;68.10
26635;BME280;14490;54.208;37.686;2022-07-18T09:53:43;98882.97;;;19.94;68.04
26635;BME280;14490;54.208;37.686;2022-07-18T09:56:13;98752.63;;;19.19;68.10
26635;BME280;14490;54.208;37.686;2022-07-18T09:58:50;98938.84;;;20.53;67.97
26635;BME280;14490;54.208;37.686;2022-07-18T10:01:20;98827.72;;;20.26;67.03
26635;BME280;14490;54.208;37.686;2022-07-18T10:03:49;98927.25;;;20.92;66.96
26635;BME280;14490;54.208;37.686;2022-07-18T10:06:20;98864.50;;;20.78;66.05
26635;BME280;14490;54.208;37.686;2022-07-18T10:08:48;98918.09;;;21.19;66.00
26635;BME280;14490;54.208;37.686;2022-07-18T10:11:22;98856.63;;;21.09;65.26
26635;BME280;14490;54.208;37.686;2022-07-18T10:13:53;98873.28;;;21.20;65.27
26635;BME280;14490;54.208;37.686;2022-07-18T10:16:22;98910.81;;;21.72;64.59
26635;BME280;14490;54.208;37.686;2022-07-18T10:18:50;98915.22;;;21.67;64.09
26635;BME280;14490;54.208;37.686;2022-07-18T10:21:19;98872.69;;;21.58;63.97
26635;BME280;14490;54.208;37.686;2022-07-18T10:23:49;98805.50;;;21.36;63.38
26635;BME280;14490;54.208;37.686;2022-07-18T10:26:19;98894.53;;;22.37;62.66
26635;BME280;14490;54.208;37.686;2022-07-18T10:29:12;98895.38;;;22.37;61.69
26635;BME280;14490;54.208;37.686;2022-07-18T10:32:00;98887.50;;;22.47;60.93
26635;BME280;14490;54.208;37.686;2022-07-18T10:34:38;98839.81;;;21.91;59.95
26635;BME280;14490;54.208;37.686;2022-07-18T10:37:08;98847.78;;;21.99;59.79
26635;BME280;14490;54.208;37.686;2022-07-18T10:39:38;98859.06;;;22.35;58.75
26635;BME280;14490;54.208;37.686;2022-07-18T10:42:15;98854.03;;;22.32;58.43
26635;BME280;14490;54.208;37.686;2022-07-18T10:44:46;98850.16;;;22.53;58.00
26635;BME280;14490;54.208;37.686;2022-07-18T10:47:15;98842.59;;;22.48;57.51
26635;BME280;14490;54.208;37.686;2022-07-18T10:50:16;98851.50;;;22.37;57.62
26635;BME280;14490;54.208;37.686;2022-07-18T10:52:56;98845.00;;;22.25;58.58
26635;BME280;14490;54.208;37.686;2022-07-18T10:55:32;98831.78;;;21.69;57.73
26635;BME280;14490;54.208;37.686;2022-07-18T10:58:20;98849.91;;;21.51;58.70
26635;BME280;14490;54.208;37.686;2022-07-18T11:00:54;98717.69;;;20.85;59.22
26635;BME280;14490;54.208;37.686;2022-07-18T11:03:27;98832.66;;;21.24;58.82
26635;BME280;14490;54.208;37.686;2022-07-18T11:05:56;98765.44;;;20.89;58.84
26635;BME280;14490;54.208;37.686;2022-07-18T11:08:25;98839.19;;;21.36;58.63
26635;BME280;14490;54.208;37.686;2022-07-18T11:11:11;98838.94;;;21.31;58.79
26635;BME280;14490;54.208;37.686;2022-07-18T11:13:43;98829.19;;;20.96;59.55
26635;BME280;14490;54.208;37.686;2022-07-18T11:16:18;98842.69;;;21.04;60.14
26635;BME280;14490;54.208;37.686;2022-07-18T11:19:15;98842.13;;;21.15;60.01
26635;BME280;14490;54.208;37.686;2022-07-18T11:21:55;98821.44;;;21.06;59.88
26635;BME280;14490;54.208;37.686;2022-07-18T11:24:24;98853.69;;;21.23;59.99
26635;BME280;14490;54.208;37.686;2022-07-18T11:26:52;98830.09;;;21.16;59.99
26635;BME280;14490;54.208;37.686;2022-07-18T11:29:19;98840.38;;;20.94;59.61
26635;BME280;14490;54.208;37.686;2022-07-18T11:31:50;98837.41;;;20.96;59.57
26635;BME280;14490;54.208;37.686;2022-07-18T11:34:19;98801.22;;;20.94;59.64
26635;BME280;14490;54.208;37.686;2022-07-18T11:36:48;98761.88;;;20.88;59.49
26635;BME280;14490;54.208;37.686;2022-07-18T11:39:28;98825.06;;;21.52;59.53
26635;BME280;14490;54.208;37.686;2022-07-18T11:41:56;98802.72;;;21.62;59.03
26635;BME280;14490;54.208;37.686;2022-07-18T11:44:24;98823.13;;;22.05;58.63
26635;BME280;14490;54.208;37.686;2022-07-18T11:47:06;98809.16;;;22.13;58.43
26635;BME280;14490;54.208;37.686;2022-07-18T11:49:36;98842.03;;;22.20;58.31
26635;BME280;14490;54.208;37.686;2022-07-18T11:52:05;98827.16;;;21.90;58.75
26635;BME280;14490;54.208;37.686;2022-07-18T11:54:34;98823.34;;;21.84;58.78
26635;BME280;14490;54.208;37.686;2022-07-18T11:57:02;98828.41;;;21.80;58.23
26635;BME280;14490;54.208;37.686;2022-07-18T11:59:38;98738.31;;;21.33;58.01
26635;BME280;14490;54.208;37.686;2022-07-18T12:02:08;98814.91;;;21.86;57.79
26635;BME280;14490;54.208;37.686;2022-07-18T12:04:37;98833.03;;;22.00;57.57
26635;BME280;14490;54.208;37.686;2022-07-18T12:07:16;98827.56;;;22.00;56.78
26635;BME280;14490;54.208;37.686;2022-07-18T12:09:45;98777.38;;;21.86;56.62
26635;BME280;14490;54.208;37.686;2022-07-18T12:12:15;98807.94;;;22.03;55.66
26635;BME280;14490;54.208;37.686;2022-07-18T12:14:52;98762.22;;;21.84;55.86
26635;BME280;14490;54.208;37.686;2022-07-18T12:17:25;98832.22;;;22.50;55.77
26635;BME280;14490;54.208;37.686;2022-07-18T12:20:08;98817.22;;;22.59;54.98
26635;BME280;14490;54.208;37.686;2022-07-18T12:25:40;98833.16;;;22.89;54.50
26635;BME280;14490;54.208;37.686;2022-07-18T12:28:13;98692.25;;;21.88;53.30
26635;BME280;14490;54.208;37.686;2022-07-18T12:30:41;98814.69;;;22.58;52.88
26635;BME280;14490;54.208;37.686;2022-07-18T12:33:11;98823.94;;;22.76;52.66
26635;BME280;14490;54.208;37.686;2022-07-18T12:35:39;98826.44;;;22.78;52.76
26635;BME280;14490;54.208;37.686;2022-07-18T12:38:07;98824.50;;;22.85;53.21
26635;BME280;14490;54.208;37.686;2022-07-18T12:40:42;98815.69;;;23.08;53.76
26635;BME280;14490;54.208;37.686;2022-07-18T12:43:13;98805.28;;;23.16;53.84
26635;BME280;14490;54.208;37.686;2022-07-18T12:45:42;98789.66;;;23.17;53.64
26635;BME280;14490;54.208;37.686;2022-07-18T12:48:12;98800.19;;;23.51;53.36
26635;BME280;14490;54.208;37.686;2022-07-18T12:50:41;98810.53;;;23.74;53.57
26635;BME280;14490;54.208;37.686;2022-07-18T12:53:10;98768.38;;;23.37;53.90
26635;BME280;14490;54.208;37.686;2022-07-18T12:55:39;98788.69;;;23.05;54.62
26635;BME280;14490;54.208;37.686;2022-07-18T12:58:06;98807.66;;;23.13;54.95
26635;BME280;14490;54.208;37.686;2022-07-18T13:00:34;98787.59;;;22.81;55.31
26635;BME280;14490;54.208;37.686;2022-07-18T13:03:02;98817.91;;;22.93;55.68